createdAt,value
2019-04-10T00:01:36.545Z,69.26
2019-04-10T00:04:02.955Z,69.22
2019-04-10T00:06:29.883Z,69.14
2019-04-10T00:08:56.769Z,69.09
2019-04-10T00:11:22.931Z,69.12
2019-04-10T00:13:49.109Z,69.11
2019-04-10T00:16:15.971Z,68.98
2019-04-10T00:18:42.260Z,69.02
2019-04-10T00:21:09.137Z,69.52
2019-04-10T00:23:35.437Z,69.90
2019-04-10T00:26:01.585Z,69.83
2019-04-10T00:28:27.642Z,69.61
2019-04-10T00:30:53.792Z,69.40
2019-04-10T00:33:20.788Z,69.45
2019-04-10T00:35:47.730Z,69.80
2019-04-10T00:38:13.966Z,69.80
2019-04-10T00:40:40.090Z,69.51
2019-04-10T00:43:06.638Z,69.37
2019-04-10T00:45:33.454Z,68.99
2019-04-10T00:47:59.653Z,69.04
2019-04-10T00:50:26.564Z,68.73
2019-04-10T00:52:52.854Z,68.31
2019-04-10T00:55:19.686Z,68.71
2019-04-10T00:57:45.930Z,68.77
2019-04-10T01:00:12.858Z,68.69
2019-04-10T01:02:38.997Z,68.84
2019-04-10T01:05:05.109Z,68.96
2019-04-10T01:07:37.193Z,68.89
2019-04-10T01:09:59.184Z,68.92
2019-04-10T01:12:25.310Z,69.18
2019-04-10T01:14:51.444Z,69.96
2019-04-10T01:17:17.881Z,70.01
2019-04-10T01:19:44.044Z,69.66
2019-04-10T01:22:10.688Z,69.72
2019-04-10T01:24:37.615Z,70.30
2019-04-10T01:27:04.184Z,70.72
2019-04-10T01:29:30.130Z,70.65
2019-04-10T01:31:56.282Z,70.63
2019-04-10T01:34:22.296Z,70.54
2019-04-10T01:36:48.406Z,70.60
2019-04-10T01:39:16.461Z,70.04
2019-04-10T01:41:42.578Z,69.93
2019-04-10T01:44:08.700Z,69.81
2019-04-10T01:46:36.087Z,71.43
2019-04-10T01:49:02.372Z,71.41
2019-04-10T01:51:28.437Z,71.38
2019-04-10T01:53:54.510Z,71.45
2019-04-10T01:56:27.477Z,71.53
2019-04-10T01:58:49.572Z,71.07
2019-04-10T02:01:18.535Z,71.07
2019-04-10T02:03:44.752Z,70.67
2019-04-10T02:06:11.317Z,70.41
2019-04-10T02:08:38.222Z,70.48
2019-04-10T02:11:04.823Z,70.76
2019-04-10T02:13:31.641Z,70.87
2019-04-10T02:15:58.566Z,70.50
2019-04-10T02:18:25.520Z,70.33
2019-04-10T02:20:51.619Z,70.28
2019-04-10T02:23:19.161Z,70.12
2019-04-10T02:25:45.395Z,70.10
2019-04-10T02:28:11.404Z,70.07
2019-04-10T02:30:39.585Z,69.84
2019-04-10T02:33:06.066Z,69.78
2019-04-10T02:35:33.880Z,69.51
2019-04-10T02:38:18.638Z,70.28
2019-04-10T02:40:28.885Z,69.94
2019-04-10T02:42:56.551Z,69.68
2019-04-10T02:45:24.202Z,69.75
2019-04-10T02:47:50.990Z,69.93
2019-04-10T02:50:18.777Z,70.13
2019-04-10T02:52:45.923Z,69.78
2019-04-10T02:55:14.337Z,69.81
2019-04-10T02:57:41.368Z,70.11
2019-04-10T03:00:08.441Z,70.03
2019-04-10T03:02:36.296Z,70.13
2019-04-10T03:05:04.611Z,70.03
2019-04-10T03:07:31.865Z,69.57
2019-04-10T03:10:12.044Z,69.26
2019-04-10T03:12:28.255Z,69.51
2019-04-10T03:14:55.072Z,70.02
2019-04-10T03:17:21.358Z,70.34
2019-04-10T03:19:47.499Z,70.42
2019-04-10T03:22:13.685Z,70.47
2019-04-10T03:24:40.205Z,70.27
2019-04-10T03:27:06.362Z,69.74
2019-04-10T03:29:32.672Z,70.28
2019-04-10T03:32:02.141Z,70.03
2019-04-10T03:34:31.897Z,69.68
2019-04-10T03:36:58.093Z,69.46
2019-04-10T03:39:24.295Z,69.76
2019-04-10T03:41:50.564Z,69.92
2019-04-10T03:44:16.760Z,69.82
2019-04-10T03:46:42.859Z,69.83
2019-04-10T03:49:09.620Z,70.50
2019-04-10T03:51:36.635Z,70.26
2019-04-10T03:54:02.914Z,70.25
2019-04-10T03:56:29.693Z,70.08
2019-04-10T03:58:55.873Z,69.96
2019-04-10T04:01:22.981Z,69.77
2019-04-10T04:03:49.224Z,69.76
2019-04-10T04:06:15.497Z,69.88
2019-04-10T04:08:41.661Z,70.27
2019-04-10T04:11:07.767Z,70.57
2019-04-10T04:13:33.899Z,71.01
2019-04-10T04:16:00.266Z,71.15
2019-04-10T04:18:26.905Z,71.24
2019-04-10T04:20:53.080Z,70.86
2019-04-10T04:23:19.452Z,70.85
2019-04-10T04:25:46.221Z,71.12
2019-04-10T04:28:12.379Z,71.04
2019-04-10T04:30:39.058Z,70.90
2019-04-10T04:33:05.214Z,70.70
2019-04-10T04:35:31.330Z,70.40
2019-04-10T04:37:58.340Z,70.14
2019-04-10T04:40:24.396Z,69.83
2019-04-10T04:42:51.425Z,70.38
2019-04-10T04:45:17.445Z,70.42
2019-04-10T04:47:43.597Z,70.43
2019-04-10T04:50:09.832Z,70.32
2019-04-10T04:52:36.941Z,70.27
2019-04-10T04:55:03.963Z,70.35
2019-04-10T04:57:31.230Z,70.89
2019-04-10T04:59:58.984Z,71.02
2019-04-10T05:02:26.124Z,71.64
2019-04-10T05:04:53.461Z,71.39
2019-04-10T05:07:20.351Z,71.75
2019-04-10T05:09:46.571Z,71.65
2019-04-10T05:12:13.378Z,71.47
2019-04-10T05:14:39.952Z,71.56
2019-04-10T05:17:06.166Z,70.97
2019-04-10T05:19:32.219Z,70.98
2019-04-10T05:21:58.249Z,70.80
2019-04-10T05:24:24.401Z,70.91
2019-04-10T05:26:51.172Z,70.81
2019-04-10T05:29:18.228Z,70.94
2019-04-10T05:31:44.685Z,70.87
2019-04-10T05:34:11.453Z,71.16
2019-04-10T05:36:37.793Z,71.34
2019-04-10T05:39:06.347Z,71.46
2019-04-10T05:41:33.531Z,71.25
2019-04-10T05:44:00.736Z,71.28
2019-04-10T05:46:26.881Z,71.45
2019-04-10T05:48:52.887Z,71.26
2019-04-10T05:51:19.210Z,71.03
2019-04-10T05:53:45.269Z,71.40
2019-04-10T05:56:11.998Z,71.31
2019-04-10T05:58:38.668Z,71.69
2019-04-10T06:01:07.520Z,71.71
2019-04-10T06:03:33.764Z,71.21
2019-04-10T06:06:01.147Z,70.89
2019-04-10T06:08:27.500Z,70.66
2019-04-10T06:10:53.681Z,70.50
2019-04-10T06:13:19.846Z,70.75
2019-04-10T06:15:45.869Z,71.00
2019-04-10T06:18:12.791Z,70.87
2019-04-10T06:20:40.025Z,70.70
2019-04-10T06:23:07.332Z,70.70
2019-04-10T06:25:35.988Z,70.82
2019-04-10T06:28:01.628Z,70.92
2019-04-10T06:30:28.051Z,71.23
2019-04-10T06:32:54.289Z,70.93
2019-04-10T06:35:20.439Z,70.90
2019-04-10T06:37:46.602Z,70.98
2019-04-10T06:40:18.599Z,71.32
2019-04-10T06:42:47.543Z,71.23
2019-04-10T06:45:09.439Z,71.68
2019-04-10T06:47:36.200Z,71.48
2019-04-10T06:50:06.475Z,71.50
2019-04-10T06:52:32.690Z,71.36
2019-04-10T06:54:58.868Z,71.61
2019-04-10T06:57:25.019Z,71.46
2019-04-10T06:59:51.119Z,71.04
2019-04-10T07:02:24.565Z,71.03
2019-04-10T07:04:51.547Z,71.55
2019-04-10T07:07:15.811Z,71.26
2019-04-10T07:09:42.166Z,70.83
2019-04-10T07:12:08.470Z,70.87
2019-04-10T07:14:36.872Z,71.04
2019-04-10T07:17:05.452Z,71.12
2019-04-10T07:19:30.925Z,71.21
2019-04-10T07:21:58.975Z,70.94
2019-04-10T07:24:25.109Z,71.05
2019-04-10T07:26:51.282Z,70.97
2019-04-10T07:29:21.079Z,70.90
2019-04-10T07:31:45.356Z,70.82
2019-04-10T07:34:11.474Z,70.92
2019-04-10T07:36:41.665Z,70.95
2019-04-10T07:39:06.070Z,70.64
2019-04-10T07:41:32.208Z,70.85
2019-04-10T07:43:58.749Z,70.52
2019-04-10T07:46:25.952Z,70.82
2019-04-10T07:48:52.502Z,70.47
2019-04-10T07:51:19.046Z,70.92
2019-04-10T07:53:45.220Z,70.56
2019-04-10T07:56:16.159Z,70.33
2019-04-10T07:58:39.979Z,70.32
2019-04-10T08:01:06.179Z,69.88
2019-04-10T08:03:33.158Z,69.95
2019-04-10T08:06:00.360Z,69.62
2019-04-10T08:08:27.726Z,69.51
2019-04-10T08:10:55.044Z,69.37
2019-04-10T08:13:22.516Z,70.31
2019-04-10T08:15:49.970Z,69.57
2019-04-10T08:18:16.225Z,69.39
2019-04-10T08:20:42.553Z,69.47
2019-04-10T08:23:08.987Z,68.68
2019-04-10T08:25:35.763Z,68.66
2019-04-10T08:28:02.769Z,68.98
2019-04-10T08:30:30.022Z,69.01
2019-04-10T08:33:01.079Z,68.97
2019-04-10T08:35:25.085Z,68.89
2019-04-10T08:37:51.314Z,68.41
2019-04-10T08:40:19.028Z,68.14
2019-04-10T08:42:47.320Z,68.14
2019-04-10T08:45:13.436Z,68.51
2019-04-10T08:47:39.708Z,68.52
2019-04-10T08:50:07.624Z,68.75
2019-04-10T08:52:34.692Z,67.85
2019-04-10T08:55:01.891Z,68.48
2019-04-10T08:57:28.161Z,68.28
2019-04-10T08:59:54.235Z,67.96
2019-04-10T09:02:20.429Z,67.99
2019-04-10T09:04:46.897Z,67.95
2019-04-10T09:07:13.745Z,67.94
2019-04-10T09:09:39.890Z,67.81
2019-04-10T09:12:06.014Z,67.64
2019-04-10T09:14:32.944Z,67.64
2019-04-10T09:16:59.203Z,67.41
2019-04-10T09:19:25.677Z,67.11
2019-04-10T09:21:52.118Z,66.84
2019-04-10T09:24:18.222Z,66.64
2019-04-10T09:26:44.580Z,65.97
2019-04-10T09:29:11.830Z,65.91
2019-04-10T09:31:38.274Z,65.97
2019-04-10T09:34:04.527Z,66.13
2019-04-10T09:36:30.658Z,66.08
2019-04-10T09:38:56.955Z,66.54
2019-04-10T09:41:23.785Z,65.71
2019-04-10T09:43:50.035Z,65.54
2019-04-10T09:46:16.278Z,65.18
2019-04-10T09:48:42.438Z,65.40
2019-04-10T09:51:09.648Z,65.31
2019-04-10T09:53:35.807Z,65.65
2019-04-10T09:56:03.133Z,65.29
2019-04-10T09:58:29.613Z,65.58
2019-04-10T10:00:56.484Z,64.96
2019-04-10T10:03:24.117Z,65.42
2019-04-10T10:05:51.020Z,64.48
2019-04-10T10:08:18.332Z,64.61
2019-04-10T10:10:44.993Z,64.29
2019-04-10T10:13:11.232Z,64.02
2019-04-10T10:15:37.694Z,63.48
2019-04-10T10:18:03.883Z,63.67
2019-04-10T10:20:30.723Z,63.70
2019-04-10T10:22:57.774Z,63.59
2019-04-10T10:25:24.118Z,63.25
2019-04-10T10:27:50.967Z,63.13
2019-04-10T10:30:18.273Z,63.85
2019-04-10T10:32:45.455Z,64.07
2019-04-10T10:35:11.632Z,63.09
2019-04-10T10:37:38.844Z,63.48
2019-04-10T10:40:08.309Z,62.75
2019-04-10T10:42:37.043Z,62.88
2019-04-10T10:45:06.816Z,63.23
2019-04-10T10:47:33.027Z,62.85
2019-04-10T10:49:59.116Z,62.75
2019-04-10T10:52:25.740Z,62.93
2019-04-10T10:54:51.946Z,62.94
2019-04-10T10:57:18.079Z,62.68
2019-04-10T10:59:46.057Z,62.86
2019-04-10T11:02:12.639Z,62.34
2019-04-10T11:04:39.843Z,62.07
2019-04-10T11:07:06.929Z,61.89
2019-04-10T11:09:34.100Z,61.41
2019-04-10T11:12:01.725Z,61.56
2019-04-10T11:14:29.924Z,61.69
2019-04-10T11:16:56.319Z,61.75
2019-04-10T11:19:23.794Z,61.38
2019-04-10T11:21:50.965Z,60.96
2019-04-10T11:24:17.302Z,61.41
2019-04-10T11:26:44.001Z,60.57
2019-04-10T11:29:10.233Z,60.94
2019-04-10T11:31:38.120Z,60.67
2019-04-10T11:34:04.421Z,60.63
2019-04-10T11:36:32.278Z,60.32
2019-04-10T11:39:09.646Z,60.24
2019-04-10T11:41:26.677Z,60.79
2019-04-10T11:43:55.849Z,60.62
2019-04-10T11:46:22.735Z,60.14
2019-04-10T11:48:49.351Z,59.85
2019-04-10T11:51:16.494Z,60.43
2019-04-10T11:56:11.590Z,60.35
2019-04-10T11:58:48.677Z,60.91
2019-04-10T12:01:08.474Z,61.28
2019-04-10T12:03:34.989Z,61.48
2019-04-10T12:06:04.330Z,60.76
2019-04-10T12:08:55.282Z,59.70
2019-04-10T12:13:26.187Z,59.92
2019-04-10T12:15:52.643Z,59.58
2019-04-10T12:18:18.741Z,60.20
2019-04-10T12:20:45.220Z,59.83
2019-04-10T12:23:12.591Z,60.02
2019-04-10T12:25:38.858Z,60.84
2019-04-10T12:28:05.454Z,60.95
2019-04-10T12:30:31.676Z,61.76
2019-04-10T12:32:57.913Z,61.06
2019-04-10T12:35:24.694Z,61.09
2019-04-10T12:37:59.465Z,61.29
2019-04-10T12:40:19.507Z,61.60
2019-04-10T12:42:46.181Z,60.94
2019-04-10T12:45:13.573Z,60.28
2019-04-10T12:47:39.925Z,60.57
2019-04-10T12:50:07.964Z,60.36
2019-04-10T12:52:34.575Z,60.65
2019-04-10T12:55:01.979Z,60.92
2019-04-10T12:57:28.626Z,61.17
2019-04-10T12:59:59.870Z,61.63
2019-04-10T13:02:22.803Z,60.46
2019-04-10T13:04:49.851Z,59.81
2019-04-10T13:07:16.113Z,60.18
2019-04-10T13:09:42.262Z,60.20
2019-04-10T13:12:09.037Z,60.01
2019-04-10T13:14:35.490Z,60.36
2019-04-10T13:17:02.856Z,60.71
2019-04-10T13:19:29.227Z,60.77
2019-04-10T13:21:55.759Z,60.74
2019-04-10T13:24:22.089Z,60.91
2019-04-10T13:26:48.271Z,61.02
2019-04-10T13:29:14.558Z,61.44
2019-04-10T13:31:40.807Z,60.58
2019-04-10T13:34:07.038Z,60.81
2019-04-10T13:36:33.251Z,60.48
2019-04-10T13:39:00.239Z,60.70
2019-04-10T13:41:26.672Z,60.78
2019-04-10T13:43:53.958Z,60.96
2019-04-10T13:46:20.524Z,60.66
2019-04-10T13:48:47.266Z,60.74
2019-04-10T13:51:13.486Z,60.93
2019-04-10T13:53:39.945Z,60.97
2019-04-10T13:56:06.600Z,60.80
2019-04-10T13:58:33.254Z,60.11
2019-04-10T14:01:00.905Z,60.21
2019-04-10T14:03:28.046Z,59.82
2019-04-10T14:05:54.845Z,59.22
2019-04-10T14:08:32.432Z,59.43
2019-04-10T14:10:49.238Z,58.54
2019-04-10T14:13:15.720Z,58.92
2019-04-10T14:15:42.219Z,59.15
2019-04-10T14:18:08.883Z,58.95
2019-04-10T14:20:35.439Z,58.51
2019-04-10T14:23:12.607Z,58.58
2019-04-10T14:25:44.162Z,58.49
2019-04-10T14:28:11.047Z,58.50
2019-04-10T14:33:28.243Z,58.98
2019-04-10T14:35:54.377Z,59.18
2019-04-10T14:38:21.140Z,58.70
2019-04-10T14:40:47.663Z,59.01
2019-04-10T14:43:14.674Z,58.75
2019-04-10T14:45:41.587Z,58.84
2019-04-10T14:48:07.943Z,58.66
2019-04-10T14:50:34.397Z,58.43
2019-04-10T14:53:01.326Z,57.72
2019-04-10T14:55:27.580Z,58.16
2019-04-10T14:57:53.600Z,58.26
2019-04-10T15:00:24.677Z,58.23
2019-04-10T15:02:50.795Z,58.54
2019-04-10T15:05:17.526Z,58.38
2019-04-10T15:07:44.768Z,58.14
2019-04-10T15:10:11.213Z,57.83
2019-04-10T15:12:37.429Z,57.98
2019-04-10T15:15:04.559Z,58.20
2019-04-10T15:17:30.878Z,58.43
2019-04-10T15:19:56.915Z,58.30
2019-04-10T15:22:23.495Z,58.55
2019-04-10T15:24:49.791Z,58.49
2019-04-10T15:27:17.141Z,58.12
2019-04-10T15:29:43.423Z,58.09
2019-04-10T15:32:10.604Z,58.25
2019-04-10T15:34:37.495Z,58.34
2019-04-10T15:37:04.675Z,58.59
2019-04-10T15:39:35.765Z,58.51
2019-04-10T15:41:59.518Z,58.38
2019-04-10T15:44:25.919Z,58.34
2019-04-10T15:46:52.023Z,58.25
2019-04-10T15:49:18.138Z,57.69
2019-04-10T15:51:45.398Z,58.12
2019-04-10T15:54:11.835Z,58.10
2019-04-10T15:56:38.149Z,57.93
2019-04-10T15:59:04.499Z,57.94
2019-04-10T16:01:30.911Z,58.02
2019-04-10T16:03:56.957Z,58.09
2019-04-10T16:06:23.131Z,58.35
2019-04-10T16:08:50.369Z,58.34
2019-04-10T16:11:36.662Z,58.35
2019-04-10T16:14:16.661Z,58.23
2019-04-10T16:16:34.761Z,58.18
2019-04-10T16:19:02.785Z,58.19
2019-04-10T16:21:29.701Z,58.60
2019-04-10T16:23:58.401Z,58.55
2019-04-10T16:26:25.243Z,58.36
2019-04-10T16:28:51.565Z,58.14
2019-04-10T16:31:17.849Z,57.86
2019-04-10T16:33:44.140Z,57.93
2019-04-10T16:36:10.886Z,57.93
2019-04-10T16:38:36.993Z,57.82
2019-04-10T16:41:03.212Z,57.86
2019-04-10T16:43:30.524Z,57.81
2019-04-10T16:45:57.295Z,57.77
2019-04-10T16:48:24.634Z,57.58
2019-04-10T16:50:51.956Z,57.33
2019-04-10T16:53:18.580Z,57.36
2019-04-10T16:55:45.049Z,57.58
2019-04-10T16:58:11.706Z,57.41
2019-04-10T17:00:37.990Z,57.19
2019-04-10T17:03:04.622Z,57.03
2019-04-10T17:05:33.612Z,57.15
2019-04-10T17:07:59.327Z,56.96
2019-04-10T17:10:27.976Z,56.80
2019-04-10T17:12:54.896Z,56.75
2019-04-10T17:15:20.982Z,57.20
2019-04-10T17:17:46.922Z,56.84
2019-04-10T17:20:14.053Z,57.14
2019-04-10T17:22:44.418Z,57.05
2019-04-10T17:25:09.647Z,57.12
2019-04-10T17:27:35.902Z,56.92
2019-04-10T17:30:05.377Z,56.96
2019-04-10T17:32:31.617Z,56.71
2019-04-10T17:34:58.876Z,56.78
2019-04-10T17:37:26.097Z,56.58
2019-04-10T17:39:52.419Z,56.91
2019-04-10T17:42:19.913Z,57.27
2019-04-10T17:44:46.267Z,56.80
2019-04-10T17:47:12.583Z,56.42
2019-04-10T17:49:39.303Z,56.64
2019-04-10T17:52:06.298Z,56.14
2019-04-10T17:54:32.528Z,56.29
2019-04-10T17:56:58.663Z,56.38
2019-04-10T17:59:24.854Z,56.44
2019-04-10T18:01:51.670Z,56.36
2019-04-10T18:04:17.914Z,55.76
2019-04-10T18:06:45.686Z,55.37
2019-04-10T18:09:11.871Z,55.99
2019-04-10T18:11:38.032Z,56.15
2019-04-10T18:14:04.150Z,55.92
2019-04-10T18:16:30.284Z,55.93
2019-04-10T18:18:56.516Z,55.76
2019-04-10T18:21:22.515Z,55.89
2019-04-10T18:23:49.520Z,55.74
2019-04-10T18:26:18.052Z,55.69
2019-04-10T18:28:43.726Z,55.73
2019-04-10T18:31:10.346Z,55.59
2019-04-10T18:33:36.480Z,55.15
2019-04-10T18:36:02.960Z,55.51
2019-04-10T18:38:29.936Z,55.48
2019-04-10T18:41:02.298Z,55.55
2019-04-10T18:43:24.340Z,55.63
2019-04-10T18:46:03.003Z,55.58
2019-04-10T18:48:20.717Z,55.58
2019-04-10T18:50:47.491Z,55.59
2019-04-10T18:53:13.476Z,55.68
2019-04-10T18:55:40.646Z,55.65
2019-04-10T18:58:09.606Z,55.48
2019-04-10T19:00:54.604Z,55.34
2019-04-10T19:03:23.536Z,55.78
2019-04-10T19:05:52.034Z,55.96
2019-04-10T19:08:18.341Z,55.88
2019-04-10T19:10:45.374Z,55.91
2019-04-10T19:13:12.928Z,56.08
2019-04-10T19:15:40.525Z,55.92
2019-04-10T19:18:07.664Z,55.90
2019-04-10T19:20:35.255Z,55.93
2019-04-10T19:23:01.518Z,56.24
2019-04-10T19:25:27.595Z,56.20
2019-04-10T19:27:53.835Z,56.15
2019-04-10T19:30:24.687Z,56.58
2019-04-10T19:32:51.889Z,56.50
2019-04-10T19:35:19.907Z,56.87
2019-04-10T19:37:47.136Z,56.75
2019-04-10T19:40:14.126Z,56.86
2019-04-10T19:42:41.689Z,56.93
2019-04-10T19:45:08.230Z,56.98
2019-04-10T19:47:34.724Z,57.08
2019-04-10T19:50:01.425Z,57.20
2019-04-10T19:52:28.538Z,57.15
2019-04-10T19:54:55.474Z,56.95
2019-04-10T19:57:22.255Z,57.24
2019-04-10T19:59:48.709Z,57.18
2019-04-10T20:02:15.224Z,57.28
2019-04-10T20:04:41.369Z,57.36
2019-04-10T20:07:07.513Z,57.33
2019-04-10T20:09:34.610Z,57.33
2019-04-10T20:12:00.776Z,57.25
2019-04-10T20:14:26.796Z,57.25
2019-04-10T20:16:52.832Z,57.34
2019-04-10T20:19:19.417Z,57.62
2019-04-10T20:21:45.594Z,57.79
2019-04-10T20:24:12.377Z,57.52
2019-04-10T20:26:39.155Z,57.54
2019-04-10T20:29:06.593Z,57.53
2019-04-10T20:31:34.638Z,57.22
2019-04-10T20:34:00.684Z,57.50
2019-04-10T20:36:26.856Z,57.56
2019-04-10T20:38:52.932Z,57.42
2019-04-10T20:41:19.039Z,57.25
2019-04-10T20:43:45.253Z,57.32
2019-04-10T20:46:11.792Z,57.32
2019-04-10T20:48:38.367Z,57.21
2019-04-10T20:51:04.521Z,56.97
2019-04-10T20:53:31.663Z,56.86
2019-04-10T20:55:58.095Z,56.66
2019-04-10T20:58:25.311Z,56.85
2019-04-10T21:00:51.595Z,56.75
2019-04-10T21:03:17.670Z,56.68
2019-04-10T21:05:44.556Z,56.78
2019-04-10T21:08:11.569Z,56.80
2019-04-10T21:10:38.674Z,56.82
2019-04-10T21:13:04.851Z,56.79
2019-04-10T21:15:30.963Z,56.46
2019-04-10T21:17:57.091Z,56.38
2019-04-10T21:20:23.186Z,56.30
2019-04-10T21:22:49.313Z,56.52
2019-04-10T21:25:15.441Z,56.61
2019-04-10T21:27:41.562Z,56.12
2019-04-10T21:30:22.113Z,56.39
2019-04-10T21:32:52.837Z,56.48
2019-04-10T21:35:22.901Z,56.49
2019-04-10T21:37:49.035Z,56.38
2019-04-10T21:40:15.165Z,56.36
2019-04-10T21:42:41.344Z,56.36
2019-04-10T21:45:07.546Z,56.22
2019-04-10T21:47:33.676Z,56.41
2019-04-10T21:50:00.421Z,56.49
2019-04-10T21:52:27.184Z,56.50
2019-04-10T21:54:57.173Z,56.27
2019-04-10T21:57:22.310Z,56.27
2019-04-10T21:59:49.439Z,56.17
2019-04-10T22:02:15.908Z,56.45
2019-04-10T22:04:41.946Z,56.45
2019-04-10T22:07:27.796Z,57.08
2019-04-10T22:10:12.776Z,57.38
2019-04-10T22:12:43.564Z,57.38
2019-04-10T22:15:09.133Z,57.07
2019-04-10T22:17:36.219Z,57.26
2019-04-10T22:20:03.354Z,57.45
2019-04-10T22:22:29.600Z,57.50
2019-04-10T22:24:56.911Z,57.67
2019-04-10T22:27:23.345Z,57.84
2019-04-10T22:29:49.595Z,58.08
2019-04-10T22:32:16.411Z,58.20
2019-04-10T22:34:42.696Z,58.08
2019-04-10T22:37:09.842Z,58.28
2019-04-10T22:39:35.963Z,58.48
2019-04-10T22:42:03.373Z,58.61
2019-04-10T22:44:37.542Z,58.63
2019-04-10T22:46:58.698Z,58.62
2019-04-10T22:49:24.918Z,58.59
2019-04-10T22:51:51.840Z,58.48
2019-04-10T22:54:18.010Z,58.58
2019-04-10T22:56:44.095Z,58.79
2019-04-10T22:59:10.272Z,58.76
2019-04-10T23:01:37.564Z,59.56
2019-04-10T23:04:03.949Z,59.80
2019-04-10T23:06:31.272Z,59.51
2019-04-10T23:08:58.073Z,59.18
2019-04-10T23:11:34.811Z,58.93
2019-04-10T23:13:52.230Z,58.70
2019-04-10T23:16:18.292Z,58.56
2019-04-10T23:18:45.606Z,58.48
2019-04-10T23:21:12.345Z,58.45
2019-04-10T23:23:39.044Z,58.43
2019-04-10T23:26:05.188Z,58.01
2019-04-10T23:28:31.550Z,58.16
2019-04-10T23:30:57.844Z,57.92
2019-04-10T23:33:23.953Z,58.21
2019-04-10T23:35:49.966Z,58.48
2019-04-10T23:38:17.425Z,58.45
2019-04-10T23:40:43.644Z,58.17
2019-04-10T23:43:14.862Z,58.23
2019-04-10T23:45:37.907Z,58.11
2019-04-10T23:48:04.543Z,58.06
2019-04-10T23:50:30.678Z,57.93
2019-04-10T23:52:56.799Z,57.79
2019-04-10T23:55:23.988Z,57.77
2019-04-10T23:57:50.141Z,57.65
